sensor_id;sensor_type;location;lat;lon;timestamp;temperature;humidity
68912;SHT31;55953;51.650;-0.522;2023-04-15T00:02:19;7.41;87.99
68912;SHT31;55953;51.650;-0.522;2023-04-15T00:04:47;7.39;87.98
68912;SHT31;55953;51.650;-0.522;2023-04-15T00:07:15;7.40;87.98
68912;SHT31;55953;51.650;-0.522;2023-04-15T00:09:44;7.42;87.95
68912;SHT31;55953;51.650;-0.522;2023-04-15T00:12:12;7.38;88.09
68912;SHT31;55953;51.650;-0.522;2023-04-15T00:14:40;7.38;87.96
68912;SHT31;55953;51.650;-0.522;2023-04-15T00:17:08;7.37;88.00
68912;SHT31;55953;51.650;-0.522;2023-04-15T00:19:35;7.37;87.97
68912;SHT31;55953;51.650;-0.522;2023-04-15T00:22:03;7.39;88.04
68912;SHT31;55953;51.650;-0.522;2023-04-15T00:24:32;7.40;87.96
68912;SHT31;55953;51.650;-0.522;2023-04-15T00:27:00;7.42;88.04
68912;SHT31;55953;51.650;-0.522;2023-04-15T00:29:28;7.41;87.93
68912;SHT31;55953;51.650;-0.522;2023-04-15T00:31:57;7.38;87.93
68912;SHT31;55953;51.650;-0.522;2023-04-15T00:34:25;7.35;87.84
68912;SHT31;55953;51.650;-0.522;2023-04-15T00:36:54;7.34;87.86
68912;SHT31;55953;51.650;-0.522;2023-04-15T00:39:22;7.31;87.91
68912;SHT31;55953;51.650;-0.522;2023-04-15T00:41:49;7.30;87.95
68912;SHT31;55953;51.650;-0.522;2023-04-15T00:44:18;7.29;87.92
68912;SHT31;55953;51.650;-0.522;2023-04-15T00:46:46;7.29;87.97
68912;SHT31;55953;51.650;-0.522;2023-04-15T00:49:17;7.28;87.84
68912;SHT31;55953;51.650;-0.522;2023-04-15T00:51:45;7.29;87.79
68912;SHT31;55953;51.650;-0.522;2023-04-15T00:54:13;7.30;87.82
68912;SHT31;55953;51.650;-0.522;2023-04-15T00:56:43;7.30;87.93
68912;SHT31;55953;51.650;-0.522;2023-04-15T00:59:11;7.29;87.76
68912;SHT31;55953;51.650;-0.522;2023-04-15T01:01:41;7.28;87.71
68912;SHT31;55953;51.650;-0.522;2023-04-15T01:04:11;7.27;87.76
68912;SHT31;55953;51.650;-0.522;2023-04-15T01:06:39;7.25;87.85
68912;SHT31;55953;51.650;-0.522;2023-04-15T01:09:07;7.25;87.80
68912;SHT31;55953;51.650;-0.522;2023-04-15T01:11:35;7.22;87.81
68912;SHT31;55953;51.650;-0.522;2023-04-15T01:14:03;7.19;87.97
68912;SHT31;55953;51.650;-0.522;2023-04-15T01:16:31;7.17;87.88
68912;SHT31;55953;51.650;-0.522;2023-04-15T01:18:59;7.18;87.99
68912;SHT31;55953;51.650;-0.522;2023-04-15T01:21:27;7.17;87.91
68912;SHT31;55953;51.650;-0.522;2023-04-15T01:23:56;7.18;87.96
68912;SHT31;55953;51.650;-0.522;2023-04-15T01:26:25;7.17;87.94
68912;SHT31;55953;51.650;-0.522;2023-04-15T01:28:53;7.15;88.00
68912;SHT31;55953;51.650;-0.522;2023-04-15T01:31:23;7.11;87.85
68912;SHT31;55953;51.650;-0.522;2023-04-15T01:33:51;7.04;87.97
68912;SHT31;55953;51.650;-0.522;2023-04-15T01:36:19;7.03;88.19
68912;SHT31;55953;51.650;-0.522;2023-04-15T01:38:47;7.01;88.32
68912;SHT31;55953;51.650;-0.522;2023-04-15T01:41:15;7.01;88.30
68912;SHT31;55953;51.650;-0.522;2023-04-15T01:43:44;6.99;88.33
68912;SHT31;55953;51.650;-0.522;2023-04-15T01:46:12;6.98;88.32
68912;SHT31;55953;51.650;-0.522;2023-04-15T01:48:40;6.97;88.25
68912;SHT31;55953;51.650;-0.522;2023-04-15T01:51:08;6.94;88.36
68912;SHT31;55953;51.650;-0.522;2023-04-15T01:53:36;6.93;88.31
68912;SHT31;55953;51.650;-0.522;2023-04-15T01:56:04;6.91;88.38
68912;SHT31;55953;51.650;-0.522;2023-04-15T01:58:33;6.87;88.42
68912;SHT31;55953;51.650;-0.522;2023-04-15T02:01:01;6.87;88.39
68912;SHT31;55953;51.650;-0.522;2023-04-15T02:03:31;6.87;88.41
68912;SHT31;55953;51.650;-0.522;2023-04-15T02:06:00;6.86;88.34
68912;SHT31;55953;51.650;-0.522;2023-04-15T02:08:28;6.83;88.30
68912;SHT31;55953;51.650;-0.522;2023-04-15T02:10:56;6.76;88.16
68912;SHT31;55953;51.650;-0.522;2023-04-15T02:13:24;6.73;88.26
68912;SHT31;55953;51.650;-0.522;2023-04-15T02:15:53;6.72;88.15
68912;SHT31;55953;51.650;-0.522;2023-04-15T02:18:22;6.71;88.20
68912;SHT31;55953;51.650;-0.522;2023-04-15T02:20:52;6.70;88.08
68912;SHT31;55953;51.650;-0.522;2023-04-15T02:23:20;6.68;88.05
68912;SHT31;55953;51.650;-0.522;2023-04-15T02:25:48;6.68;88.07
68912;SHT31;55953;51.650;-0.522;2023-04-15T02:28:20;6.67;88.03
68912;SHT31;55953;51.650;-0.522;2023-04-15T02:30:48;6.62;87.95
68912;SHT31;55953;51.650;-0.522;2023-04-15T02:33:20;6.59;87.86
68912;SHT31;55953;51.650;-0.522;2023-04-15T02:35:48;6.56;87.98
68912;SHT31;55953;51.650;-0.522;2023-04-15T02:38:16;6.56;88.09
68912;SHT31;55953;51.650;-0.522;2023-04-15T02:40:44;6.57;88.02
68912;SHT31;55953;51.650;-0.522;2023-04-15T02:43:13;6.59;88.01
68912;SHT31;55953;51.650;-0.522;2023-04-15T02:45:40;6.59;88.17
68912;SHT31;55953;51.650;-0.522;2023-04-15T02:48:10;6.58;88.25
68912;SHT31;55953;51.650;-0.522;2023-04-15T02:50:38;6.59;88.19
68912;SHT31;55953;51.650;-0.522;2023-04-15T02:53:08;6.61;88.19
68912;SHT31;55953;51.650;-0.522;2023-04-15T02:55:35;6.61;88.22
68912;SHT31;55953;51.650;-0.522;2023-04-15T02:58:03;6.61;88.15
68912;SHT31;55953;51.650;-0.522;2023-04-15T03:00:31;6.62;88.18
68912;SHT31;55953;51.650;-0.522;2023-04-15T03:03:03;6.62;88.19
68912;SHT31;55953;51.650;-0.522;2023-04-15T03:05:32;6.63;88.24
68912;SHT31;55953;51.650;-0.522;2023-04-15T03:08:00;6.64;88.30
68912;SHT31;55953;51.650;-0.522;2023-04-15T03:10:29;6.64;88.24
68912;SHT31;55953;51.650;-0.522;2023-04-15T03:12:57;6.63;88.29
68912;SHT31;55953;51.650;-0.522;2023-04-15T03:15:25;6.61;88.18
68912;SHT31;55953;51.650;-0.522;2023-04-15T03:17:53;6.58;88.16
68912;SHT31;55953;51.650;-0.522;2023-04-15T03:20:22;6.56;88.19
68912;SHT31;55953;51.650;-0.522;2023-04-15T03:22:50;6.57;88.23
68912;SHT31;55953;51.650;-0.522;2023-04-15T03:25:18;6.57;88.37
68912;SHT31;55953;51.650;-0.522;2023-04-15T03:27:46;6.58;88.31
68912;SHT31;55953;51.650;-0.522;2023-04-15T03:30:14;6.59;88.49
68912;SHT31;55953;51.650;-0.522;2023-04-15T03:32:42;6.61;88.49
68912;SHT31;55953;51.650;-0.522;2023-04-15T03:35:10;6.64;88.43
68912;SHT31;55953;51.650;-0.522;2023-04-15T03:37:38;6.63;88.57
68912;SHT31;55953;51.650;-0.522;2023-04-15T03:40:06;6.61;88.54
68912;SHT31;55953;51.650;-0.522;2023-04-15T03:42:36;6.63;88.45
68912;SHT31;55953;51.650;-0.522;2023-04-15T03:45:04;6.65;88.56
68912;SHT31;55953;51.650;-0.522;2023-04-15T03:47:32;6.65;88.55
68912;SHT31;55953;51.650;-0.522;2023-04-15T03:50:00;6.66;88.61
68912;SHT31;55953;51.650;-0.522;2023-04-15T03:52:28;6.67;88.58
68912;SHT31;55953;51.650;-0.522;2023-04-15T03:54:56;6.68;88.53
68912;SHT31;55953;51.650;-0.522;2023-04-15T03:57:24;6.68;88.58
68912;SHT31;55953;51.650;-0.522;2023-04-15T03:59:51;6.68;88.63
68912;SHT31;55953;51.650;-0.522;2023-04-15T04:02:19;6.68;88.60
68912;SHT31;55953;51.650;-0.522;2023-04-15T04:04:48;6.70;88.53
68912;SHT31;55953;51.650;-0.522;2023-04-15T04:07:16;6.74;88.53
68912;SHT31;55953;51.650;-0.522;2023-04-15T04:09:44;6.73;88.41
68912;SHT31;55953;51.650;-0.522;2023-04-15T04:12:13;6.74;88.41
68912;SHT31;55953;51.650;-0.522;2023-04-15T04:14:41;6.74;88.50
68912;SHT31;55953;51.650;-0.522;2023-04-15T04:17:09;6.75;88.43
68912;SHT31;55953;51.650;-0.522;2023-04-15T04:19:38;6.76;88.47
68912;SHT31;55953;51.650;-0.522;2023-04-15T04:22:06;6.76;88.41
68912;SHT31;55953;51.650;-0.522;2023-04-15T04:24:33;6.76;88.23
68912;SHT31;55953;51.650;-0.522;2023-04-15T04:27:01;6.76;88.28
68912;SHT31;55953;51.650;-0.522;2023-04-15T04:29:29;6.78;88.22
68912;SHT31;55953;51.650;-0.522;2023-04-15T04:31:57;6.78;88.21
68912;SHT31;55953;51.650;-0.522;2023-04-15T04:34:25;6.78;88.32
68912;SHT31;55953;51.650;-0.522;2023-04-15T04:36:53;6.76;88.30
68912;SHT31;55953;51.650;-0.522;2023-04-15T04:39:21;6.75;88.32
68912;SHT31;55953;51.650;-0.522;2023-04-15T04:41:49;6.74;88.36
68912;SHT31;55953;51.650;-0.522;2023-04-15T04:44:18;6.73;88.46
68912;SHT31;55953;51.650;-0.522;2023-04-15T04:46:46;6.73;88.48
68912;SHT31;55953;51.650;-0.522;2023-04-15T04:49:14;6.75;88.50
68912;SHT31;55953;51.650;-0.522;2023-04-15T04:51:42;6.77;88.47
68912;SHT31;55953;51.650;-0.522;2023-04-15T04:54:10;6.78;88.49
68912;SHT31;55953;51.650;-0.522;2023-04-15T04:56:38;6.79;88.37
68912;SHT31;55953;51.650;-0.522;2023-04-15T04:59:06;6.80;88.38
68912;SHT31;55953;51.650;-0.522;2023-04-15T05:01:34;6.83;88.32
68912;SHT31;55953;51.650;-0.522;2023-04-15T05:04:02;6.86;88.27
68912;SHT31;55953;51.650;-0.522;2023-04-15T05:06:32;6.87;88.23
68912;SHT31;55953;51.650;-0.522;2023-04-15T05:09:00;6.87;88.17
68912;SHT31;55953;51.650;-0.522;2023-04-15T05:11:28;6.87;88.18
68912;SHT31;55953;51.650;-0.522;2023-04-15T05:13:56;6.86;88.20
68912;SHT31;55953;51.650;-0.522;2023-04-15T05:16:25;6.87;88.27
68912;SHT31;55953;51.650;-0.522;2023-04-15T05:18:53;6.89;88.16
68912;SHT31;55953;51.650;-0.522;2023-04-15T05:21:21;6.89;88.07
68912;SHT31;55953;51.650;-0.522;2023-04-15T05:23:50;6.90;88.17
68912;SHT31;55953;51.650;-0.522;2023-04-15T05:26:17;6.88;88.18
68912;SHT31;55953;51.650;-0.522;2023-04-15T05:28:45;6.89;88.03
68912;SHT31;55953;51.650;-0.522;2023-04-15T05:31:14;6.89;87.93
68912;SHT31;55953;51.650;-0.522;2023-04-15T05:33:42;6.93;87.93
68912;SHT31;55953;51.650;-0.522;2023-04-15T05:36:10;6.93;87.84
68912;SHT31;55953;51.650;-0.522;2023-04-15T05:38:38;6.94;87.75
68912;SHT31;55953;51.650;-0.522;2023-04-15T05:41:06;6.95;87.70
68912;SHT31;55953;51.650;-0.522;2023-04-15T05:43:34;6.95;87.71
68912;SHT31;55953;51.650;-0.522;2023-04-15T05:46:01;6.97;87.80
68912;SHT31;55953;51.650;-0.522;2023-04-15T05:48:29;6.99;87.72
68912;SHT31;55953;51.650;-0.522;2023-04-15T05:50:57;7.01;87.71
68912;SHT31;55953;51.650;-0.522;2023-04-15T05:53:25;7.05;87.69
68912;SHT31;55953;51.650;-0.522;2023-04-15T05:55:53;7.04;87.50
68912;SHT31;55953;51.650;-0.522;2023-04-15T05:58:21;7.04;87.42
68912;SHT31;55953;51.650;-0.522;2023-04-15T06:00:48;7.07;87.52
68912;SHT31;55953;51.650;-0.522;2023-04-15T06:03:17;7.06;87.50
68912;SHT31;55953;51.650;-0.522;2023-04-15T06:05:45;7.04;87.40
68912;SHT31;55953;51.650;-0.522;2023-04-15T06:08:12;7.05;87.40
68912;SHT31;55953;51.650;-0.522;2023-04-15T06:10:40;7.07;87.43
68912;SHT31;55953;51.650;-0.522;2023-04-15T06:13:08;7.08;87.41
68912;SHT31;55953;51.650;-0.522;2023-04-15T06:15:36;7.06;87.11
68912;SHT31;55953;51.650;-0.522;2023-04-15T06:18:04;7.08;87.23
68912;SHT31;55953;51.650;-0.522;2023-04-15T06:20:32;7.10;87.27
68912;SHT31;55953;51.650;-0.522;2023-04-15T06:22:59;7.11;87.14
68912;SHT31;55953;51.650;-0.522;2023-04-15T06:25:27;7.12;87.16
68912;SHT31;55953;51.650;-0.522;2023-04-15T06:27:55;7.11;87.04
68912;SHT31;55953;51.650;-0.522;2023-04-15T06:30:23;7.13;87.15
68912;SHT31;55953;51.650;-0.522;2023-04-15T06:32:51;7.15;87.20
68912;SHT31;55953;51.650;-0.522;2023-04-15T06:35:19;7.18;87.02
68912;SHT31;55953;51.650;-0.522;2023-04-15T06:37:48;7.20;87.00
68912;SHT31;55953;51.650;-0.522;2023-04-15T06:40:16;7.21;86.93
68912;SHT31;55953;51.650;-0.522;2023-04-15T06:42:44;7.22;86.93
68912;SHT31;55953;51.650;-0.522;2023-04-15T06:45:12;7.23;86.87
68912;SHT31;55953;51.650;-0.522;2023-04-15T06:47:40;7.20;86.68
68912;SHT31;55953;51.650;-0.522;2023-04-15T06:50:08;7.19;86.86
68912;SHT31;55953;51.650;-0.522;2023-04-15T06:52:37;7.19;86.88
68912;SHT31;55953;51.650;-0.522;2023-04-15T06:55:04;7.21;86.95
68912;SHT31;55953;51.650;-0.522;2023-04-15T06:57:34;7.19;87.00
68912;SHT31;55953;51.650;-0.522;2023-04-15T07:00:02;7.22;86.98
68912;SHT31;55953;51.650;-0.522;2023-04-15T07:02:32;7.23;86.93
68912;SHT31;55953;51.650;-0.522;2023-04-15T07:05:00;7.24;86.97
68912;SHT31;55953;51.650;-0.522;2023-04-15T07:07:29;7.25;86.87
68912;SHT31;55953;51.650;-0.522;2023-04-15T07:09:57;7.28;86.98
68912;SHT31;55953;51.650;-0.522;2023-04-15T07:12:24;7.32;86.92
68912;SHT31;55953;51.650;-0.522;2023-04-15T07:14:52;7.34;86.98
68912;SHT31;55953;51.650;-0.522;2023-04-15T07:17:20;7.37;87.01
68912;SHT31;55953;51.650;-0.522;2023-04-15T07:19:48;7.38;87.04
68912;SHT31;55953;51.650;-0.522;2023-04-15T07:22:16;7.38;86.89
68912;SHT31;55953;51.650;-0.522;2023-04-15T07:24:44;7.42;86.83
68912;SHT31;55953;51.650;-0.522;2023-04-15T07:27:13;7.47;86.62
68912;SHT31;55953;51.650;-0.522;2023-04-15T07:29:40;7.58;86.73
68912;SHT31;55953;51.650;-0.522;2023-04-15T07:32:08;7.63;86.37
68912;SHT31;55953;51.650;-0.522;2023-04-15T07:34:37;7.68;86.35
68912;SHT31;55953;51.650;-0.522;2023-04-15T07:37:05;7.72;86.34
68912;SHT31;55953;51.650;-0.522;2023-04-15T07:39:32;7.76;86.28
68912;SHT31;55953;51.650;-0.522;2023-04-15T07:42:00;7.74;85.95
68912;SHT31;55953;51.650;-0.522;2023-04-15T07:44:28;7.75;85.91
68912;SHT31;55953;51.650;-0.522;2023-04-15T07:46:56;7.78;85.89
68912;SHT31;55953;51.650;-0.522;2023-04-15T07:49:24;7.84;85.92
68912;SHT31;55953;51.650;-0.522;2023-04-15T07:51:52;7.87;85.74
68912;SHT31;55953;51.650;-0.522;2023-04-15T07:54:20;7.93;85.78
68912;SHT31;55953;51.650;-0.522;2023-04-15T07:56:48;7.97;85.58
68912;SHT31;55953;51.650;-0.522;2023-04-15T07:59:16;8.02;85.51
68912;SHT31;55953;51.650;-0.522;2023-04-15T08:01:44;8.08;85.49
68912;SHT31;55953;51.650;-0.522;2023-04-15T08:04:12;8.09;85.21
68912;SHT31;55953;51.650;-0.522;2023-04-15T08:06:42;8.11;85.38
68912;SHT31;55953;51.650;-0.522;2023-04-15T08:09:10;8.15;85.36
68912;SHT31;55953;51.650;-0.522;2023-04-15T08:11:38;8.16;85.12
68912;SHT31;55953;51.650;-0.522;2023-04-15T08:14:06;8.24;85.16
68912;SHT31;55953;51.650;-0.522;2023-04-15T08:16:34;8.33;84.89
68912;SHT31;55953;51.650;-0.522;2023-04-15T08:19:02;8.44;84.58
68912;SHT31;55953;51.650;-0.522;2023-04-15T08:21:30;8.53;84.38
68912;SHT31;55953;51.650;-0.522;2023-04-15T08:23:58;8.61;84.43
68912;SHT31;55953;51.650;-0.522;2023-04-15T08:26:26;8.65;84.36
68912;SHT31;55953;51.650;-0.522;2023-04-15T08:28:54;8.68;83.98
68912;SHT31;55953;51.650;-0.522;2023-04-15T08:31:22;8.64;83.53
68912;SHT31;55953;51.650;-0.522;2023-04-15T08:33:53;8.70;83.33
68912;SHT31;55953;51.650;-0.522;2023-04-15T08:36:23;8.83;83.09
68912;SHT31;55953;51.650;-0.522;2023-04-15T08:38:51;8.96;82.61
68912;SHT31;55953;51.650;-0.522;2023-04-15T08:41:23;9.19;82.81
68912;SHT31;55953;51.650;-0.522;2023-04-15T08:43:53;9.27;82.06
68912;SHT31;55953;51.650;-0.522;2023-04-15T08:46:29;9.34;82.29
68912;SHT31;55953;51.650;-0.522;2023-04-15T08:49:02;9.43;81.14
68912;SHT31;55953;51.650;-0.522;2023-04-15T08:51:31;9.49;81.20
68912;SHT31;55953;51.650;-0.522;2023-04-15T08:54:00;9.66;81.29
68912;SHT31;55953;51.650;-0.522;2023-04-15T08:56:30;9.75;80.21
68912;SHT31;55953;51.650;-0.522;2023-04-15T08:58:59;9.78;79.65
68912;SHT31;55953;51.650;-0.522;2023-04-15T09:01:28;9.90;79.30
68912;SHT31;55953;51.650;-0.522;2023-04-15T09:03:56;10.17;79.64
68912;SHT31;55953;51.650;-0.522;2023-04-15T09:06:26;10.40;79.20
68912;SHT31;55953;51.650;-0.522;2023-04-15T09:08:54;10.45;77.82
68912;SHT31;55953;51.650;-0.522;2023-04-15T09:11:22;10.68;78.41
68912;SHT31;55953;51.650;-0.522;2023-04-15T09:13:50;10.87;78.23
68912;SHT31;55953;51.650;-0.522;2023-04-15T09:16:18;10.88;77.81
68912;SHT31;55953;51.650;-0.522;2023-04-15T09:18:46;10.92;77.99
68912;SHT31;55953;51.650;-0.522;2023-04-15T09:21:15;10.85;76.88
68912;SHT31;55953;51.650;-0.522;2023-04-15T09:23:57;11.02;77.45
68912;SHT31;55953;51.650;-0.522;2023-04-15T09:26:29;11.10;76.42
68912;SHT31;55953;51.650;-0.522;2023-04-15T09:29:06;11.19;77.16
68912;SHT31;55953;51.650;-0.522;2023-04-15T09:31:40;11.23;77.37
68912;SHT31;55953;51.650;-0.522;2023-04-15T09:34:08;11.32;76.82
68912;SHT31;55953;51.650;-0.522;2023-04-15T09:36:55;11.28;76.30
68912;SHT31;55953;51.650;-0.522;2023-04-15T09:39:24;11.10;76.46
68912;SHT31;55953;51.650;-0.522;2023-04-15T09:42:07;11.04;76.41
68912;SHT31;55953;51.650;-0.522;2023-04-15T09:44:35;10.96;76.38
68912;SHT31;55953;51.650;-0.522;2023-04-15T09:47:04;11.01;76.38
68912;SHT31;55953;51.650;-0.522;2023-04-15T09:49:32;11.17;76.41
68912;SHT31;55953;51.650;-0.522;2023-04-15T09:52:01;11.34;75.49
68912;SHT31;55953;51.650;-0.522;2023-04-15T09:54:33;11.50;75.51
68912;SHT31;55953;51.650;-0.522;2023-04-15T09:57:04;11.43;74.84
68912;SHT31;55953;51.650;-0.522;2023-04-15T09:59:36;11.30;74.89
68912;SHT31;55953;51.650;-0.522;2023-04-15T10:02:04;11.16;74.81
68912;SHT31;55953;51.650;-0.522;2023-04-15T10:04:37;11.05;74.86
68912;SHT31;55953;51.650;-0.522;2023-04-15T10:07:08;10.93;75.49
68912;SHT31;55953;51.650;-0.522;2023-04-15T10:09:38;10.93;76.16
68912;SHT31;55953;51.650;-0.522;2023-04-15T10:12:07;10.86;75.85
68912;SHT31;55953;51.650;-0.522;2023-04-15T10:14:35;10.81;76.29
68912;SHT31;55953;51.650;-0.522;2023-04-15T10:17:05;10.82;76.59
68912;SHT31;55953;51.650;-0.522;2023-04-15T10:19:35;10.98;76.64
68912;SHT31;55953;51.650;-0.522;2023-04-15T10:22:04;11.22;76.35
68912;SHT31;55953;51.650;-0.522;2023-04-15T10:24:34;11.37;75.38
68912;SHT31;55953;51.650;-0.522;2023-04-15T10:27:03;11.53;75.51
68912;SHT31;55953;51.650;-0.522;2023-04-15T10:29:33;11.68;75.63
68912;SHT31;55953;51.650;-0.522;2023-04-15T10:32:01;11.73;74.88
68912;SHT31;55953;51.650;-0.522;2023-04-15T10:34:30;11.72;74.29
68912;SHT31;55953;51.650;-0.522;2023-04-15T10:37:03;11.62;74.23
68912;SHT31;55953;51.650;-0.522;2023-04-15T10:42:10;11.32;74.19
68912;SHT31;55953;51.650;-0.522;2023-04-15T10:44:49;11.18;74.85
68912;SHT31;55953;51.650;-0.522;2023-04-15T10:47:22;11.30;74.60
68912;SHT31;55953;51.650;-0.522;2023-04-15T10:49:51;11.46;74.33
68912;SHT31;55953;51.650;-0.522;2023-04-15T10:52:26;11.45;73.62
68912;SHT31;55953;51.650;-0.522;2023-04-15T10:55:15;11.38;73.35
68912;SHT31;55953;51.650;-0.522;2023-04-15T10:57:54;11.39;74.10
68912;SHT31;55953;51.650;-0.522;2023-04-15T11:00:28;11.48;73.52
68912;SHT31;55953;51.650;-0.522;2023-04-15T11:03:04;11.60;73.80
68912;SHT31;55953;51.650;-0.522;2023-04-15T11:08:05;12.17;73.37
68912;SHT31;55953;51.650;-0.522;2023-04-15T11:15:37;12.38;71.48
68912;SHT31;55953;51.650;-0.522;2023-04-15T11:20:52;12.51;72.38
68912;SHT31;55953;51.650;-0.522;2023-04-15T11:23:28;12.62;72.31
68912;SHT31;55953;51.650;-0.522;2023-04-15T11:26:17;12.68;72.12
68912;SHT31;55953;51.650;-0.522;2023-04-15T11:28:45;12.77;72.28
68912;SHT31;55953;51.650;-0.522;2023-04-15T11:31:16;12.65;70.48
68912;SHT31;55953;51.650;-0.522;2023-04-15T11:34:04;12.61;71.64
68912;SHT31;55953;51.650;-0.522;2023-04-15T11:36:32;12.69;71.83
68912;SHT31;55953;51.650;-0.522;2023-04-15T11:39:00;12.74;71.64
68912;SHT31;55953;51.650;-0.522;2023-04-15T11:41:28;12.76;71.34
68912;SHT31;55953;51.650;-0.522;2023-04-15T11:43:56;12.82;70.80
68912;SHT31;55953;51.650;-0.522;2023-04-15T11:46:28;12.91;71.44
68912;SHT31;55953;51.650;-0.522;2023-04-15T11:48:58;12.97;70.32
68912;SHT31;55953;51.650;-0.522;2023-04-15T11:51:26;12.84;69.24
68912;SHT31;55953;51.650;-0.522;2023-04-15T11:54:00;12.78;69.95
68912;SHT31;55953;51.650;-0.522;2023-04-15T11:56:29;12.87;70.87
68912;SHT31;55953;51.650;-0.522;2023-04-15T11:58:57;12.93;70.31
68912;SHT31;55953;51.650;-0.522;2023-04-15T12:01:38;12.92;69.25
68912;SHT31;55953;51.650;-0.522;2023-04-15T12:04:15;12.99;69.90
68912;SHT31;55953;51.650;-0.522;2023-04-15T12:06:52;13.07;70.06
68912;SHT31;55953;51.650;-0.522;2023-04-15T12:09:20;13.09;70.34
68912;SHT31;55953;51.650;-0.522;2023-04-15T12:11:48;13.14;69.79
68912;SHT31;55953;51.650;-0.522;2023-04-15T12:14:26;13.15;69.60
68912;SHT31;55953;51.650;-0.522;2023-04-15T12:17:02;13.24;67.81
68912;SHT31;55953;51.650;-0.522;2023-04-15T12:19:40;13.31;67.79
68912;SHT31;55953;51.650;-0.522;2023-04-15T12:22:13;13.40;67.31
68912;SHT31;55953;51.650;-0.522;2023-04-15T12:24:43;13.50;67.03
68912;SHT31;55953;51.650;-0.522;2023-04-15T12:27:15;13.55;66.09
68912;SHT31;55953;51.650;-0.522;2023-04-15T12:29:44;13.71;66.67
68912;SHT31;55953;51.650;-0.522;2023-04-15T12:32:12;13.91;66.27
68912;SHT31;55953;51.650;-0.522;2023-04-15T12:34:42;13.77;65.50
68912;SHT31;55953;51.650;-0.522;2023-04-15T12:37:16;13.86;66.98
68912;SHT31;55953;51.650;-0.522;2023-04-15T12:39:46;14.09;66.20
68912;SHT31;55953;51.650;-0.522;2023-04-15T12:42:16;14.26;65.77
68912;SHT31;55953;51.650;-0.522;2023-04-15T12:44:44;14.34;65.56
68912;SHT31;55953;51.650;-0.522;2023-04-15T12:47:13;14.36;64.94
68912;SHT31;55953;51.650;-0.522;2023-04-15T12:49:41;14.34;65.12
68912;SHT31;55953;51.650;-0.522;2023-04-15T12:52:09;14.29;65.80
68912;SHT31;55953;51.650;-0.522;2023-04-15T12:54:37;14.36;65.96
68912;SHT31;55953;51.650;-0.522;2023-04-15T12:57:06;14.50;65.84
68912;SHT31;55953;51.650;-0.522;2023-04-15T12:59:34;14.69;66.73
68912;SHT31;55953;51.650;-0.522;2023-04-15T13:02:03;14.77;65.36
68912;SHT31;55953;51.650;-0.522;2023-04-15T13:04:31;14.57;64.49
68912;SHT31;55953;51.650;-0.522;2023-04-15T13:07:00;14.21;63.05
68912;SHT31;55953;51.650;-0.522;2023-04-15T13:09:28;14.11;62.99
68912;SHT31;55953;51.650;-0.522;2023-04-15T13:11:57;14.24;62.74
68912;SHT31;55953;51.650;-0.522;2023-04-15T13:14:25;14.33;61.76
68912;SHT31;55953;51.650;-0.522;2023-04-15T13:16:53;14.48;62.54
68912;SHT31;55953;51.650;-0.522;2023-04-15T13:19:21;14.50;60.06
68912;SHT31;55953;51.650;-0.522;2023-04-15T13:21:49;14.47;60.10
68912;SHT31;55953;51.650;-0.522;2023-04-15T13:24:17;14.56;60.16
68912;SHT31;55953;51.650;-0.522;2023-04-15T13:26:45;14.79;60.90
68912;SHT31;55953;51.650;-0.522;2023-04-15T13:29:16;15.00;59.40
68912;SHT31;55953;51.650;-0.522;2023-04-15T13:31:44;14.99;58.24
68912;SHT31;55953;51.650;-0.522;2023-04-15T13:34:12;15.06;58.65
68912;SHT31;55953;51.650;-0.522;2023-04-15T13:36:40;15.13;58.39
68912;SHT31;55953;51.650;-0.522;2023-04-15T13:39:08;15.21;57.69
68912;SHT31;55953;51.650;-0.522;2023-04-15T13:41:36;15.10;56.66
68912;SHT31;55953;51.650;-0.522;2023-04-15T13:44:04;15.00;58.14
68912;SHT31;55953;51.650;-0.522;2023-04-15T13:46:33;15.00;58.76
68912;SHT31;55953;51.650;-0.522;2023-04-15T13:49:00;14.90;58.37
68912;SHT31;55953;51.650;-0.522;2023-04-15T13:51:28;14.82;58.90
68912;SHT31;55953;51.650;-0.522;2023-04-15T13:53:57;14.96;59.49
68912;SHT31;55953;51.650;-0.522;2023-04-15T13:56:25;15.11;58.49
68912;SHT31;55953;51.650;-0.522;2023-04-15T13:58:52;15.34;58.93
68912;SHT31;55953;51.650;-0.522;2023-04-15T14:01:25;15.40;57.84
68912;SHT31;55953;51.650;-0.522;2023-04-15T14:03:53;15.41;57.18
68912;SHT31;55953;51.650;-0.522;2023-04-15T14:06:22;15.50;57.46
68912;SHT31;55953;51.650;-0.522;2023-04-15T14:08:51;15.63;57.19
68912;SHT31;55953;51.650;-0.522;2023-04-15T14:11:19;15.74;56.71
68912;SHT31;55953;51.650;-0.522;2023-04-15T14:13:47;15.87;57.35
68912;SHT31;55953;51.650;-0.522;2023-04-15T14:16:15;15.93;55.63
68912;SHT31;55953;51.650;-0.522;2023-04-15T14:18:43;16.06;55.11
68912;SHT31;55953;51.650;-0.522;2023-04-15T14:21:11;16.16;56.07
68912;SHT31;55953;51.650;-0.522;2023-04-15T14:23:39;16.34;55.93
68912;SHT31;55953;51.650;-0.522;2023-04-15T14:26:07;16.47;55.56
68912;SHT31;55953;51.650;-0.522;2023-04-15T14:28:35;16.39;55.16
68912;SHT31;55953;51.650;-0.522;2023-04-15T14:31:04;16.20;53.98
68912;SHT31;55953;51.650;-0.522;2023-04-15T14:33:32;16.07;55.07
68912;SHT31;55953;51.650;-0.522;2023-04-15T14:36:00;15.93;54.40
68912;SHT31;55953;51.650;-0.522;2023-04-15T14:38:28;15.82;54.78
68912;SHT31;55953;51.650;-0.522;2023-04-15T14:40:56;16.01;55.77
68912;SHT31;55953;51.650;-0.522;2023-04-15T14:43:24;16.36;54.78
68912;SHT31;55953;51.650;-0.522;2023-04-15T14:45:52;16.39;52.59
68912;SHT31;55953;51.650;-0.522;2023-04-15T14:48:20;16.43;55.34
68912;SHT31;55953;51.650;-0.522;2023-04-15T14:50:48;16.59;55.45
68912;SHT31;55953;51.650;-0.522;2023-04-15T14:53:16;16.82;54.15
68912;SHT31;55953;51.650;-0.522;2023-04-15T14:55:44;17.05;53.67
68912;SHT31;55953;51.650;-0.522;2023-04-15T14:58:12;17.22;53.13
68912;SHT31;55953;51.650;-0.522;2023-04-15T15:00:40;17.15;51.96
68912;SHT31;55953;51.650;-0.522;2023-04-15T15:03:10;17.02;53.69
68912;SHT31;55953;51.650;-0.522;2023-04-15T15:05:40;16.95;53.13
68912;SHT31;55953;51.650;-0.522;2023-04-15T15:08:10;16.65;53.05
68912;SHT31;55953;51.650;-0.522;2023-04-15T15:10:39;16.55;53.31
68912;SHT31;55953;51.650;-0.522;2023-04-15T15:13:16;16.26;53.64
68912;SHT31;55953;51.650;-0.522;2023-04-15T15:15:45;16.34;54.57
68912;SHT31;55953;51.650;-0.522;2023-04-15T15:18:16;16.26;53.06
68912;SHT31;55953;51.650;-0.522;2023-04-15T15:20:45;16.13;53.12
68912;SHT31;55953;51.650;-0.522;2023-04-15T15:23:14;15.93;53.27
68912;SHT31;55953;51.650;-0.522;2023-04-15T15:25:42;15.78;54.52
68912;SHT31;55953;51.650;-0.522;2023-04-15T15:28:10;15.63;54.24
68912;SHT31;55953;51.650;-0.522;2023-04-15T15:30:39;15.55;54.87
68912;SHT31;55953;51.650;-0.522;2023-04-15T15:33:07;15.53;54.31
68912;SHT31;55953;51.650;-0.522;2023-04-15T15:35:35;15.47;54.42
68912;SHT31;55953;51.650;-0.522;2023-04-15T15:38:03;15.46;55.39
68912;SHT31;55953;51.650;-0.522;2023-04-15T15:40:31;15.43;55.29
68912;SHT31;55953;51.650;-0.522;2023-04-15T15:43:00;15.40;54.57
68912;SHT31;55953;51.650;-0.522;2023-04-15T15:45:28;15.42;55.17
68912;SHT31;55953;51.650;-0.522;2023-04-15T15:47:57;15.51;55.50
68912;SHT31;55953;51.650;-0.522;2023-04-15T15:50:25;15.64;55.33